sensor_id;sensor_type;location;lat;lon;timestamp;P1;durP1;ratioP1;P2;durP2;ratioP2
14052;SDS011;7101;51.600;7.310;2023-05-10T00:00:55;6.57;;;5.78;;
14052;SDS011;7101;51.600;7.310;2023-05-10T00:03:22;6.93;;;5.78;;
14052;SDS011;7101;51.600;7.310;2023-05-10T00:05:49;7.03;;;5.63;;
14052;SDS011;7101;51.600;7.310;2023-05-10T00:08:16;6.90;;;6.20;;
14052;SDS011;7101;51.600;7.310;2023-05-10T00:10:44;6.88;;;6.18;;
14052;SDS011;7101;51.600;7.310;2023-05-10T00:13:11;6.95;;;5.90;;
14052;SDS011;7101;51.600;7.310;2023-05-10T00:15:40;5.75;;;5.25;;
14052;SDS011;7101;51.600;7.310;2023-05-10T00:18:07;6.88;;;5.22;;
14052;SDS011;7101;51.600;7.310;2023-05-10T00:20:34;5.68;;;4.60;;
14052;SDS011;7101;51.600;7.310;2023-05-10T00:23:01;5.95;;;4.50;;
14052;SDS011;7101;51.600;7.310;2023-05-10T00:25:28;5.90;;;4.75;;
14052;SDS011;7101;51.600;7.310;2023-05-10T00:27:56;5.40;;;4.70;;
14052;SDS011;7101;51.600;7.310;2023-05-10T00:30:23;5.07;;;4.30;;
14052;SDS011;7101;51.600;7.310;2023-05-10T00:32:50;7.30;;;5.25;;
14052;SDS011;7101;51.600;7.310;2023-05-10T00:35:17;4.97;;;4.45;;
14052;SDS011;7101;51.600;7.310;2023-05-10T00:37:44;4.95;;;4.45;;
14052;SDS011;7101;51.600;7.310;2023-05-10T00:40:11;5.35;;;4.00;;
14052;SDS011;7101;51.600;7.310;2023-05-10T00:42:39;4.90;;;4.32;;
14052;SDS011;7101;51.600;7.310;2023-05-10T00:45:08;4.88;;;4.38;;
14052;SDS011;7101;51.600;7.310;2023-05-10T00:47:37;6.43;;;4.65;;
14052;SDS011;7101;51.600;7.310;2023-05-10T00:50:04;4.88;;;4.13;;
14052;SDS011;7101;51.600;7.310;2023-05-10T00:52:32;4.20;;;3.80;;
14052;SDS011;7101;51.600;7.310;2023-05-10T00:54:59;5.25;;;4.20;;
14052;SDS011;7101;51.600;7.310;2023-05-10T00:57:28;5.60;;;4.60;;
14052;SDS011;7101;51.600;7.310;2023-05-10T00:59:55;6.53;;;4.38;;
14052;SDS011;7101;51.600;7.310;2023-05-10T01:02:24;9.70;;;5.15;;
14052;SDS011;7101;51.600;7.310;2023-05-10T01:04:52;5.80;;;5.20;;
14052;SDS011;7101;51.600;7.310;2023-05-10T01:07:19;5.65;;;5.03;;
14052;SDS011;7101;51.600;7.310;2023-05-10T01:09:47;5.93;;;5.20;;
14052;SDS011;7101;51.600;7.310;2023-05-10T01:12:14;5.57;;;5.07;;
14052;SDS011;7101;51.600;7.310;2023-05-10T01:14:42;6.05;;;5.18;;
14052;SDS011;7101;51.600;7.310;2023-05-10T01:17:09;6.43;;;5.15;;
14052;SDS011;7101;51.600;7.310;2023-05-10T01:19:39;6.15;;;5.40;;
14052;SDS011;7101;51.600;7.310;2023-05-10T01:22:10;5.53;;;4.97;;
14052;SDS011;7101;51.600;7.310;2023-05-10T01:31:07;5.75;;;5.03;;
14052;SDS011;7101;51.600;7.310;2023-05-10T01:33:46;6.28;;;5.25;;
14052;SDS011;7101;51.600;7.310;2023-05-10T01:36:19;6.70;;;5.25;;
14052;SDS011;7101;51.600;7.310;2023-05-10T01:38:54;6.78;;;5.13;;
14052;SDS011;7101;51.600;7.310;2023-05-10T01:41:27;5.53;;;4.95;;
14052;SDS011;7101;51.600;7.310;2023-05-10T01:44:02;5.68;;;5.07;;
14052;SDS011;7101;51.600;7.310;2023-05-10T01:46:36;5.57;;;4.53;;
14052;SDS011;7101;51.600;7.310;2023-05-10T01:49:07;5.78;;;5.05;;
14052;SDS011;7101;51.600;7.310;2023-05-10T01:51:38;5.80;;;5.15;;
14052;SDS011;7101;51.600;7.310;2023-05-10T01:54:11;6.38;;;4.90;;
14052;SDS011;7101;51.600;7.310;2023-05-10T01:56:40;5.72;;;5.13;;
14052;SDS011;7101;51.600;7.310;2023-05-10T01:59:11;5.20;;;4.68;;
14052;SDS011;7101;51.600;7.310;2023-05-10T02:01:41;5.75;;;5.10;;
14052;SDS011;7101;51.600;7.310;2023-05-10T02:04:12;4.82;;;4.32;;
14052;SDS011;7101;51.600;7.310;2023-05-10T02:06:42;4.80;;;4.28;;
14052;SDS011;7101;51.600;7.310;2023-05-10T02:09:20;6.25;;;4.22;;
14052;SDS011;7101;51.600;7.310;2023-05-10T02:11:48;3.95;;;3.38;;
14052;SDS011;7101;51.600;7.310;2023-05-10T02:14:16;2.55;;;2.28;;
14052;SDS011;7101;51.600;7.310;2023-05-10T02:16:45;3.47;;;1.80;;
14052;SDS011;7101;51.600;7.310;2023-05-10T02:19:15;3.28;;;1.70;;
14052;SDS011;7101;51.600;7.310;2023-05-10T02:21:43;1.67;;;1.55;;
14052;SDS011;7101;51.600;7.310;2023-05-10T02:24:12;3.20;;;1.50;;
14052;SDS011;7101;51.600;7.310;2023-05-10T02:26:42;2.40;;;1.42;;
14052;SDS011;7101;51.600;7.310;2023-05-10T02:29:10;1.70;;;1.60;;
14052;SDS011;7101;51.600;7.310;2023-05-10T02:31:38;3.35;;;1.50;;
14052;SDS011;7101;51.600;7.310;2023-05-10T02:34:09;2.35;;;1.50;;
14052;SDS011;7101;51.600;7.310;2023-05-10T02:36:38;2.45;;;2.00;;
14052;SDS011;7101;51.600;7.310;2023-05-10T02:39:07;2.20;;;2.00;;
14052;SDS011;7101;51.600;7.310;2023-05-10T02:41:37;2.97;;;1.92;;
14052;SDS011;7101;51.600;7.310;2023-05-10T02:44:07;2.63;;;2.20;;
14052;SDS011;7101;51.600;7.310;2023-05-10T02:46:34;3.65;;;2.40;;
14052;SDS011;7101;51.600;7.310;2023-05-10T02:49:02;3.45;;;2.10;;
14052;SDS011;7101;51.600;7.310;2023-05-10T02:51:30;5.10;;;2.30;;
14052;SDS011;7101;51.600;7.310;2023-05-10T02:54:04;2.25;;;2.05;;
14052;SDS011;7101;51.600;7.310;2023-05-10T02:56:42;3.55;;;2.42;;
14052;SDS011;7101;51.600;7.310;2023-05-10T02:59:13;2.83;;;2.42;;
14052;SDS011;7101;51.600;7.310;2023-05-10T03:01:40;4.63;;;2.63;;
14052;SDS011;7101;51.600;7.310;2023-05-10T03:04:07;3.28;;;2.25;;
14052;SDS011;7101;51.600;7.310;2023-05-10T03:06:34;3.38;;;2.40;;
14052;SDS011;7101;51.600;7.310;2023-05-10T03:09:01;2.95;;;2.08;;
14052;SDS011;7101;51.600;7.310;2023-05-10T03:11:38;3.75;;;2.17;;
14052;SDS011;7101;51.600;7.310;2023-05-10T03:14:14;3.22;;;2.30;;
14052;SDS011;7101;51.600;7.310;2023-05-10T03:16:52;4.35;;;2.47;;
14052;SDS011;7101;51.600;7.310;2023-05-10T03:19:27;2.70;;;2.38;;
14052;SDS011;7101;51.600;7.310;2023-05-10T03:21:59;3.03;;;2.50;;
14052;SDS011;7101;51.600;7.310;2023-05-10T03:24:31;4.03;;;2.60;;
14052;SDS011;7101;51.600;7.310;2023-05-10T03:27:02;5.00;;;3.00;;
14052;SDS011;7101;51.600;7.310;2023-05-10T03:29:31;3.83;;;2.72;;
14052;SDS011;7101;51.600;7.310;2023-05-10T03:31:58;3.58;;;3.10;;
14052;SDS011;7101;51.600;7.310;2023-05-10T03:34:26;4.40;;;3.35;;
14052;SDS011;7101;51.600;7.310;2023-05-10T03:36:57;6.50;;;3.83;;
14052;SDS011;7101;51.600;7.310;2023-05-10T03:39:24;6.07;;;3.70;;
14052;SDS011;7101;51.600;7.310;2023-05-10T03:41:53;7.32;;;4.03;;
14052;SDS011;7101;51.600;7.310;2023-05-10T03:44:19;5.35;;;3.72;;
14052;SDS011;7101;51.600;7.310;2023-05-10T03:46:46;5.07;;;4.57;;
14052;SDS011;7101;51.600;7.310;2023-05-10T03:49:15;6.30;;;4.72;;
14052;SDS011;7101;51.600;7.310;2023-05-10T03:51:42;7.32;;;6.30;;
14052;SDS011;7101;51.600;7.310;2023-05-10T03:54:09;9.02;;;6.85;;
14052;SDS011;7101;51.600;7.310;2023-05-10T03:56:36;9.70;;;7.05;;
14052;SDS011;7101;51.600;7.310;2023-05-10T03:59:04;9.40;;;7.78;;
14052;SDS011;7101;51.600;7.310;2023-05-10T04:01:32;11.27;;;7.22;;
14052;SDS011;7101;51.600;7.310;2023-05-10T04:03:59;9.02;;;7.45;;
14052;SDS011;7101;51.600;7.310;2023-05-10T04:06:27;10.52;;;7.82;;
14052;SDS011;7101;51.600;7.310;2023-05-10T04:08:54;10.93;;;8.63;;
14052;SDS011;7101;51.600;7.310;2023-05-10T04:11:24;14.68;;;9.02;;
14052;SDS011;7101;51.600;7.310;2023-05-10T04:13:51;10.32;;;8.93;;
14052;SDS011;7101;51.600;7.310;2023-05-10T04:16:20;13.48;;;9.80;;
14052;SDS011;7101;51.600;7.310;2023-05-10T04:18:48;12.77;;;10.10;;
14052;SDS011;7101;51.600;7.310;2023-05-10T04:21:17;14.15;;;10.75;;
14052;SDS011;7101;51.600;7.310;2023-05-10T04:23:45;16.90;;;10.95;;
14052;SDS011;7101;51.600;7.310;2023-05-10T04:26:12;16.52;;;11.27;;
14052;SDS011;7101;51.600;7.310;2023-05-10T04:28:42;20.48;;;12.68;;
14052;SDS011;7101;51.600;7.310;2023-05-10T04:31:09;21.33;;;15.02;;
14052;SDS011;7101;51.600;7.310;2023-05-10T04:33:38;22.65;;;16.33;;
14052;SDS011;7101;51.600;7.310;2023-05-10T04:36:05;25.30;;;18.60;;
14052;SDS011;7101;51.600;7.310;2023-05-10T04:38:32;27.90;;;19.00;;
14052;SDS011;7101;51.600;7.310;2023-05-10T04:41:08;29.73;;;20.30;;
14052;SDS011;7101;51.600;7.310;2023-05-10T04:43:36;30.83;;;19.48;;
14052;SDS011;7101;51.600;7.310;2023-05-10T04:46:04;27.58;;;19.38;;
14052;SDS011;7101;51.600;7.310;2023-05-10T04:48:32;24.30;;;18.38;;
14052;SDS011;7101;51.600;7.310;2023-05-10T04:51:00;25.52;;;17.52;;
14052;SDS011;7101;51.600;7.310;2023-05-10T04:53:28;24.67;;;18.27;;
14052;SDS011;7101;51.600;7.310;2023-05-10T04:55:55;25.05;;;17.35;;
14052;SDS011;7101;51.600;7.310;2023-05-10T04:58:24;23.85;;;17.83;;
14052;SDS011;7101;51.600;7.310;2023-05-10T05:00:51;24.33;;;18.08;;
14052;SDS011;7101;51.600;7.310;2023-05-10T05:03:19;31.23;;;19.80;;
14052;SDS011;7101;51.600;7.310;2023-05-10T05:05:51;30.92;;;21.65;;
14052;SDS011;7101;51.600;7.310;2023-05-10T05:08:22;33.90;;;23.08;;
14052;SDS011;7101;51.600;7.310;2023-05-10T05:10:49;31.35;;;22.27;;
14052;SDS011;7101;51.600;7.310;2023-05-10T05:13:18;35.85;;;23.52;;
14052;SDS011;7101;51.600;7.310;2023-05-10T05:15:48;40.83;;;26.08;;
14052;SDS011;7101;51.600;7.310;2023-05-10T05:18:15;40.53;;;26.90;;
14052;SDS011;7101;51.600;7.310;2023-05-10T05:20:45;41.33;;;25.40;;
14052;SDS011;7101;51.600;7.310;2023-05-10T05:23:13;40.42;;;25.65;;
14052;SDS011;7101;51.600;7.310;2023-05-10T05:25:43;36.90;;;25.75;;
14052;SDS011;7101;51.600;7.310;2023-05-10T05:28:11;40.03;;;26.58;;
14052;SDS011;7101;51.600;7.310;2023-05-10T05:30:38;39.38;;;25.58;;
14052;SDS011;7101;51.600;7.310;2023-05-10T05:33:06;42.13;;;27.98;;
14052;SDS011;7101;51.600;7.310;2023-05-10T05:35:34;42.30;;;28.33;;
14052;SDS011;7101;51.600;7.310;2023-05-10T05:38:03;40.88;;;27.42;;
14052;SDS011;7101;51.600;7.310;2023-05-10T05:40:30;41.05;;;26.83;;
14052;SDS011;7101;51.600;7.310;2023-05-10T05:42:58;44.80;;;28.63;;
14052;SDS011;7101;51.600;7.310;2023-05-10T05:45:25;40.95;;;28.05;;
14052;SDS011;7101;51.600;7.310;2023-05-10T05:47:52;57.35;;;36.00;;
14052;SDS011;7101;51.600;7.310;2023-05-10T05:50:19;49.33;;;31.10;;
14052;SDS011;7101;51.600;7.310;2023-05-10T05:52:48;46.47;;;29.83;;
14052;SDS011;7101;51.600;7.310;2023-05-10T05:55:16;41.28;;;27.77;;
14052;SDS011;7101;51.600;7.310;2023-05-10T05:57:43;41.30;;;27.98;;
14052;SDS011;7101;51.600;7.310;2023-05-10T06:00:12;47.92;;;28.88;;
14052;SDS011;7101;51.600;7.310;2023-05-10T06:02:39;41.47;;;28.30;;
14052;SDS011;7101;51.600;7.310;2023-05-10T06:05:06;44.63;;;28.73;;
14052;SDS011;7101;51.600;7.310;2023-05-10T06:07:34;45.17;;;29.85;;
14052;SDS011;7101;51.600;7.310;2023-05-10T06:10:01;40.50;;;28.33;;
14052;SDS011;7101;51.600;7.310;2023-05-10T06:12:28;44.50;;;29.38;;
14052;SDS011;7101;51.600;7.310;2023-05-10T06:14:59;47.05;;;30.88;;
14052;SDS011;7101;51.600;7.310;2023-05-10T06:17:27;43.30;;;29.52;;
14052;SDS011;7101;51.600;7.310;2023-05-10T06:19:54;47.10;;;30.10;;
14052;SDS011;7101;51.600;7.310;2023-05-10T06:22:22;42.22;;;29.48;;
14052;SDS011;7101;51.600;7.310;2023-05-10T06:24:51;40.47;;;28.40;;
14052;SDS011;7101;51.600;7.310;2023-05-10T06:27:19;49.80;;;30.77;;
14052;SDS011;7101;51.600;7.310;2023-05-10T06:29:46;42.35;;;28.88;;
14052;SDS011;7101;51.600;7.310;2023-05-10T06:32:13;45.35;;;28.67;;
14052;SDS011;7101;51.600;7.310;2023-05-10T06:34:42;40.95;;;28.75;;
14052;SDS011;7101;51.600;7.310;2023-05-10T06:37:10;41.08;;;27.27;;
14052;SDS011;7101;51.600;7.310;2023-05-10T06:39:38;37.15;;;26.40;;
14052;SDS011;7101;51.600;7.310;2023-05-10T06:42:05;40.60;;;26.50;;
14052;SDS011;7101;51.600;7.310;2023-05-10T06:44:33;39.33;;;27.80;;
14052;SDS011;7101;51.600;7.310;2023-05-10T06:47:02;36.58;;;26.25;;
14052;SDS011;7101;51.600;7.310;2023-05-10T06:49:29;39.83;;;28.70;;
14052;SDS011;7101;51.600;7.310;2023-05-10T06:51:57;41.63;;;26.45;;
14052;SDS011;7101;51.600;7.310;2023-05-10T06:54:25;37.28;;;27.30;;
14052;SDS011;7101;51.600;7.310;2023-05-10T06:56:52;39.25;;;27.88;;
14052;SDS011;7101;51.600;7.310;2023-05-10T06:59:19;38.63;;;28.52;;
14052;SDS011;7101;51.600;7.310;2023-05-10T07:01:46;39.67;;;27.02;;
14052;SDS011;7101;51.600;7.310;2023-05-10T07:04:13;36.95;;;28.45;;
14052;SDS011;7101;51.600;7.310;2023-05-10T07:06:40;38.22;;;29.25;;
14052;SDS011;7101;51.600;7.310;2023-05-10T07:09:09;46.40;;;33.95;;
14052;SDS011;7101;51.600;7.310;2023-05-10T07:11:36;49.65;;;35.17;;
14052;SDS011;7101;51.600;7.310;2023-05-10T07:14:03;33.63;;;25.35;;
14052;SDS011;7101;51.600;7.310;2023-05-10T07:16:30;42.05;;;31.73;;
14052;SDS011;7101;51.600;7.310;2023-05-10T07:18:57;32.85;;;24.27;;
14052;SDS011;7101;51.600;7.310;2023-05-10T07:21:25;27.35;;;21.40;;
14052;SDS011;7101;51.600;7.310;2023-05-10T07:23:53;24.83;;;20.35;;
14052;SDS011;7101;51.600;7.310;2023-05-10T07:26:22;31.65;;;22.65;;
14052;SDS011;7101;51.600;7.310;2023-05-10T07:28:50;26.02;;;22.35;;
14052;SDS011;7101;51.600;7.310;2023-05-10T07:31:18;28.23;;;22.60;;
14052;SDS011;7101;51.600;7.310;2023-05-10T07:33:45;27.33;;;22.75;;
14052;SDS011;7101;51.600;7.310;2023-05-10T07:36:13;30.08;;;22.02;;
14052;SDS011;7101;51.600;7.310;2023-05-10T07:38:41;28.45;;;24.38;;
14052;SDS011;7101;51.600;7.310;2023-05-10T07:41:08;26.45;;;22.33;;
14052;SDS011;7101;51.600;7.310;2023-05-10T07:43:36;25.70;;;22.95;;
14052;SDS011;7101;51.600;7.310;2023-05-10T07:46:04;26.75;;;21.90;;
14052;SDS011;7101;51.600;7.310;2023-05-10T07:48:41;29.05;;;24.50;;
14052;SDS011;7101;51.600;7.310;2023-05-10T07:51:09;29.55;;;24.73;;
14052;SDS011;7101;51.600;7.310;2023-05-10T07:53:38;28.88;;;25.40;;
14052;SDS011;7101;51.600;7.310;2023-05-10T07:56:19;31.42;;;27.40;;
14052;SDS011;7101;51.600;7.310;2023-05-10T07:58:49;30.20;;;26.85;;
14052;SDS011;7101;51.600;7.310;2023-05-10T08:01:16;32.20;;;27.02;;
14052;SDS011;7101;51.600;7.310;2023-05-10T08:03:43;30.15;;;26.92;;
14052;SDS011;7101;51.600;7.310;2023-05-10T08:06:09;31.70;;;26.85;;
14052;SDS011;7101;51.600;7.310;2023-05-10T08:08:37;30.05;;;26.88;;
14052;SDS011;7101;51.600;7.310;2023-05-10T08:11:04;36.35;;;27.60;;
14052;SDS011;7101;51.600;7.310;2023-05-10T08:13:30;31.30;;;27.83;;
14052;SDS011;7101;51.600;7.310;2023-05-10T08:15:59;32.88;;;25.98;;
14052;SDS011;7101;51.600;7.310;2023-05-10T08:18:26;28.20;;;25.02;;
14052;SDS011;7101;51.600;7.310;2023-05-10T08:20:53;30.52;;;27.23;;
14052;SDS011;7101;51.600;7.310;2023-05-10T08:23:20;33.58;;;27.60;;
14052;SDS011;7101;51.600;7.310;2023-05-10T08:25:47;38.83;;;30.50;;
14052;SDS011;7101;51.600;7.310;2023-05-10T08:28:14;39.33;;;29.65;;
14052;SDS011;7101;51.600;7.310;2023-05-10T08:30:42;33.28;;;27.02;;
14052;SDS011;7101;51.600;7.310;2023-05-10T08:33:11;34.17;;;27.88;;
14052;SDS011;7101;51.600;7.310;2023-05-10T08:35:38;31.70;;;26.63;;
14052;SDS011;7101;51.600;7.310;2023-05-10T08:38:05;29.30;;;24.75;;
14052;SDS011;7101;51.600;7.310;2023-05-10T08:40:31;27.38;;;23.10;;
14052;SDS011;7101;51.600;7.310;2023-05-10T08:43:02;25.65;;;21.73;;
14052;SDS011;7101;51.600;7.310;2023-05-10T08:45:36;28.15;;;22.23;;
14052;SDS011;7101;51.600;7.310;2023-05-10T08:48:04;21.70;;;18.98;;
14052;SDS011;7101;51.600;7.310;2023-05-10T08:50:34;25.38;;;20.95;;
14052;SDS011;7101;51.600;7.310;2023-05-10T08:53:03;24.40;;;21.52;;
14052;SDS011;7101;51.600;7.310;2023-05-10T08:55:32;28.00;;;22.25;;
14052;SDS011;7101;51.600;7.310;2023-05-10T08:58:01;31.02;;;25.70;;
14052;SDS011;7101;51.600;7.310;2023-05-10T09:00:28;33.00;;;26.13;;
14052;SDS011;7101;51.600;7.310;2023-05-10T09:02:56;32.28;;;25.52;;
14052;SDS011;7101;51.600;7.310;2023-05-10T09:05:24;31.23;;;26.88;;
14052;SDS011;7101;51.600;7.310;2023-05-10T09:07:55;31.65;;;23.38;;
14052;SDS011;7101;51.600;7.310;2023-05-10T09:10:21;31.00;;;24.40;;
14052;SDS011;7101;51.600;7.310;2023-05-10T09:12:52;30.88;;;24.45;;
14052;SDS011;7101;51.600;7.310;2023-05-10T09:15:22;33.22;;;24.45;;
14052;SDS011;7101;51.600;7.310;2023-05-10T09:17:49;32.83;;;25.40;;
14052;SDS011;7101;51.600;7.310;2023-05-10T09:20:16;34.92;;;25.98;;
14052;SDS011;7101;51.600;7.310;2023-05-10T09:22:43;35.72;;;26.92;;
14052;SDS011;7101;51.600;7.310;2023-05-10T09:25:12;32.55;;;23.77;;
14052;SDS011;7101;51.600;7.310;2023-05-10T09:27:44;27.35;;;21.15;;
14052;SDS011;7101;51.600;7.310;2023-05-10T09:30:15;26.08;;;19.00;;
14052;SDS011;7101;51.600;7.310;2023-05-10T09:32:43;24.17;;;16.80;;
14052;SDS011;7101;51.600;7.310;2023-05-10T09:35:11;20.77;;;14.93;;
14052;SDS011;7101;51.600;7.310;2023-05-10T09:37:40;18.92;;;15.38;;
14052;SDS011;7101;51.600;7.310;2023-05-10T09:40:10;18.35;;;14.02;;
14052;SDS011;7101;51.600;7.310;2023-05-10T09:42:41;18.85;;;15.70;;
14052;SDS011;7101;51.600;7.310;2023-05-10T09:45:09;19.67;;;14.98;;
14052;SDS011;7101;51.600;7.310;2023-05-10T09:47:36;19.20;;;14.80;;
14052;SDS011;7101;51.600;7.310;2023-05-10T09:50:03;19.63;;;14.32;;
14052;SDS011;7101;51.600;7.310;2023-05-10T09:52:30;18.08;;;12.98;;
14052;SDS011;7101;51.600;7.310;2023-05-10T09:55:12;17.60;;;12.75;;
14052;SDS011;7101;51.600;7.310;2023-05-10T09:57:41;16.40;;;12.90;;
14052;SDS011;7101;51.600;7.310;2023-05-10T10:00:08;15.73;;;12.38;;
14052;SDS011;7101;51.600;7.310;2023-05-10T10:02:36;16.70;;;11.98;;
14052;SDS011;7101;51.600;7.310;2023-05-10T10:05:03;15.43;;;12.32;;
14052;SDS011;7101;51.600;7.310;2023-05-10T10:07:30;14.20;;;11.77;;
14052;SDS011;7101;51.600;7.310;2023-05-10T10:09:57;14.30;;;11.15;;
14052;SDS011;7101;51.600;7.310;2023-05-10T10:12:26;14.43;;;10.07;;
14052;SDS011;7101;51.600;7.310;2023-05-10T10:14:53;14.20;;;10.25;;
14052;SDS011;7101;51.600;7.310;2023-05-10T10:17:22;17.73;;;11.07;;
14052;SDS011;7101;51.600;7.310;2023-05-10T10:19:51;15.00;;;11.57;;
14052;SDS011;7101;51.600;7.310;2023-05-10T10:22:18;12.70;;;11.38;;
14052;SDS011;7101;51.600;7.310;2023-05-10T10:24:44;15.05;;;12.00;;
14052;SDS011;7101;51.600;7.310;2023-05-10T10:27:15;16.77;;;12.95;;
14052;SDS011;7101;51.600;7.310;2023-05-10T10:29:56;13.43;;;11.45;;
14052;SDS011;7101;51.600;7.310;2023-05-10T10:32:30;13.68;;;10.95;;
14052;SDS011;7101;51.600;7.310;2023-05-10T10:35:06;16.17;;;11.98;;
14052;SDS011;7101;51.600;7.310;2023-05-10T10:37:42;17.67;;;12.88;;
14052;SDS011;7101;51.600;7.310;2023-05-10T10:40:23;18.15;;;13.65;;
14052;SDS011;7101;51.600;7.310;2023-05-10T10:42:51;18.80;;;14.60;;
14052;SDS011;7101;51.600;7.310;2023-05-10T10:45:21;24.90;;;16.20;;
14052;SDS011;7101;51.600;7.310;2023-05-10T10:50:51;26.40;;;18.42;;
14052;SDS011;7101;51.600;7.310;2023-05-10T10:53:23;27.10;;;20.05;;
14052;SDS011;7101;51.600;7.310;2023-05-10T10:55:55;29.50;;;20.05;;
14052;SDS011;7101;51.600;7.310;2023-05-10T10:58:31;27.35;;;20.70;;
14052;SDS011;7101;51.600;7.310;2023-05-10T11:01:10;25.73;;;19.70;;
14052;SDS011;7101;51.600;7.310;2023-05-10T11:03:38;25.05;;;19.02;;
14052;SDS011;7101;51.600;7.310;2023-05-10T11:06:05;28.75;;;19.85;;
14052;SDS011;7101;51.600;7.310;2023-05-10T11:08:34;26.73;;;19.95;;
14052;SDS011;7101;51.600;7.310;2023-05-10T11:11:07;26.35;;;18.48;;
14052;SDS011;7101;51.600;7.310;2023-05-10T11:13:34;27.25;;;18.38;;
14052;SDS011;7101;51.600;7.310;2023-05-10T11:16:17;24.38;;;18.05;;
14052;SDS011;7101;51.600;7.310;2023-05-10T11:18:52;22.65;;;16.40;;
14052;SDS011;7101;51.600;7.310;2023-05-10T11:21:24;20.77;;;15.18;;
14052;SDS011;7101;51.600;7.310;2023-05-10T11:23:52;22.60;;;15.55;;
14052;SDS011;7101;51.600;7.310;2023-05-10T11:26:21;22.27;;;15.95;;
14052;SDS011;7101;51.600;7.310;2023-05-10T11:28:51;22.25;;;15.95;;
14052;SDS011;7101;51.600;7.310;2023-05-10T11:31:23;19.73;;;14.50;;
14052;SDS011;7101;51.600;7.310;2023-05-10T11:33:52;18.70;;;14.18;;
14052;SDS011;7101;51.600;7.310;2023-05-10T11:36:20;23.95;;;16.63;;
14052;SDS011;7101;51.600;7.310;2023-05-10T11:38:50;22.65;;;17.73;;
14052;SDS011;7101;51.600;7.310;2023-05-10T11:41:17;26.33;;;21.67;;
14052;SDS011;7101;51.600;7.310;2023-05-10T11:43:47;26.85;;;21.80;;
14052;SDS011;7101;51.600;7.310;2023-05-10T11:46:15;30.25;;;24.50;;
14052;SDS011;7101;51.600;7.310;2023-05-10T11:48:46;31.23;;;23.30;;
14052;SDS011;7101;51.600;7.310;2023-05-10T11:51:19;28.55;;;22.83;;
14052;SDS011;7101;51.600;7.310;2023-05-10T11:53:46;29.08;;;21.63;;
14052;SDS011;7101;51.600;7.310;2023-05-10T11:56:15;27.23;;;20.13;;
14052;SDS011;7101;51.600;7.310;2023-05-10T11:58:42;22.33;;;17.63;;
14052;SDS011;7101;51.600;7.310;2023-05-10T12:01:08;19.50;;;15.65;;
14052;SDS011;7101;51.600;7.310;2023-05-10T12:03:36;20.38;;;13.85;;
14052;SDS011;7101;51.600;7.310;2023-05-10T12:06:06;14.30;;;11.65;;
14052;SDS011;7101;51.600;7.310;2023-05-10T12:08:33;16.52;;;12.43;;
14052;SDS011;7101;51.600;7.310;2023-05-10T12:11:04;18.20;;;13.07;;
14052;SDS011;7101;51.600;7.310;2023-05-10T12:13:32;14.70;;;12.98;;
14052;SDS011;7101;51.600;7.310;2023-05-10T12:16:12;15.65;;;13.30;;
14052;SDS011;7101;51.600;7.310;2023-05-10T12:18:39;14.90;;;13.07;;
14052;SDS011;7101;51.600;7.310;2023-05-10T12:21:08;15.45;;;13.02;;
14052;SDS011;7101;51.600;7.310;2023-05-10T12:23:36;14.95;;;12.35;;
14052;SDS011;7101;51.600;7.310;2023-05-10T12:26:03;14.65;;;11.57;;
14052;SDS011;7101;51.600;7.310;2023-05-10T12:28:30;15.18;;;11.07;;
14052;SDS011;7101;51.600;7.310;2023-05-10T12:30:57;13.45;;;11.13;;
14052;SDS011;7101;51.600;7.310;2023-05-10T12:33:25;15.40;;;11.95;;
14052;SDS011;7101;51.600;7.310;2023-05-10T12:35:52;15.32;;;12.52;;
14052;SDS011;7101;51.600;7.310;2023-05-10T12:38:26;14.05;;;11.52;;
14052;SDS011;7101;51.600;7.310;2023-05-10T12:40:54;13.18;;;9.82;;
14052;SDS011;7101;51.600;7.310;2023-05-10T12:43:21;14.05;;;9.55;;
14052;SDS011;7101;51.600;7.310;2023-05-10T12:45:49;12.05;;;10.07;;
14052;SDS011;7101;51.600;7.310;2023-05-10T12:48:16;14.82;;;10.45;;
14052;SDS011;7101;51.600;7.310;2023-05-10T12:50:43;14.23;;;9.75;;
14052;SDS011;7101;51.600;7.310;2023-05-10T12:53:13;13.70;;;9.68;;
14052;SDS011;7101;51.600;7.310;2023-05-10T12:55:42;10.30;;;9.20;;
14052;SDS011;7101;51.600;7.310;2023-05-10T12:58:09;14.05;;;10.10;;
14052;SDS011;7101;51.600;7.310;2023-05-10T13:00:36;11.35;;;9.93;;
14052;SDS011;7101;51.600;7.310;2023-05-10T13:03:04;13.57;;;10.25;;
14052;SDS011;7101;51.600;7.310;2023-05-10T13:05:31;12.85;;;10.48;;
14052;SDS011;7101;51.600;7.310;2023-05-10T13:07:58;12.07;;;10.35;;
14052;SDS011;7101;51.600;7.310;2023-05-10T13:10:25;12.88;;;11.48;;
14052;SDS011;7101;51.600;7.310;2023-05-10T13:12:53;13.98;;;11.73;;
14052;SDS011;7101;51.600;7.310;2023-05-10T13:15:20;13.38;;;11.98;;
14052;SDS011;7101;51.600;7.310;2023-05-10T13:17:47;21.10;;;17.48;;
14052;SDS011;7101;51.600;7.310;2023-05-10T13:20:15;17.90;;;16.10;;
14052;SDS011;7101;51.600;7.310;2023-05-10T13:22:42;17.58;;;15.68;;
14052;SDS011;7101;51.600;7.310;2023-05-10T13:25:09;15.50;;;13.25;;
14052;SDS011;7101;51.600;7.310;2023-05-10T13:27:39;16.60;;;13.02;;
14052;SDS011;7101;51.600;7.310;2023-05-10T13:30:08;13.98;;;12.52;;
14052;SDS011;7101;51.600;7.310;2023-05-10T13:32:36;17.58;;;14.98;;
14052;SDS011;7101;51.600;7.310;2023-05-10T13:35:03;19.55;;;17.45;;
14052;SDS011;7101;51.600;7.310;2023-05-10T13:37:31;19.00;;;17.00;;
14052;SDS011;7101;51.600;7.310;2023-05-10T13:40:00;19.60;;;17.50;;
14052;SDS011;7101;51.600;7.310;2023-05-10T13:42:28;18.90;;;17.00;;
14052;SDS011;7101;51.600;7.310;2023-05-10T13:44:56;18.92;;;17.13;;
14052;SDS011;7101;51.600;7.310;2023-05-10T13:47:24;17.98;;;16.08;;
14052;SDS011;7101;51.600;7.310;2023-05-10T13:49:51;17.63;;;15.70;;
14052;SDS011;7101;51.600;7.310;2023-05-10T13:52:19;16.27;;;14.57;;
14052;SDS011;7101;51.600;7.310;2023-05-10T13:54:46;12.73;;;11.23;;
14052;SDS011;7101;51.600;7.310;2023-05-10T13:57:13;9.88;;;8.63;;
14052;SDS011;7101;51.600;7.310;2023-05-10T13:59:41;12.38;;;10.15;;
14052;SDS011;7101;51.600;7.310;2023-05-10T14:02:08;7.85;;;7.05;;
14052;SDS011;7101;51.600;7.310;2023-05-10T14:04:36;9.40;;;6.65;;
14052;SDS011;7101;51.600;7.310;2023-05-10T14:07:04;8.88;;;7.00;;
14052;SDS011;7101;51.600;7.310;2023-05-10T14:09:30;9.07;;;7.20;;
14052;SDS011;7101;51.600;7.310;2023-05-10T14:11:57;7.60;;;6.72;;
14052;SDS011;7101;51.600;7.310;2023-05-10T14:14:25;7.25;;;5.82;;
14052;SDS011;7101;51.600;7.310;2023-05-10T14:16:54;8.10;;;5.80;;
14052;SDS011;7101;51.600;7.310;2023-05-10T14:19:20;10.15;;;6.03;;
14052;SDS011;7101;51.600;7.310;2023-05-10T14:21:49;7.75;;;5.57;;
14052;SDS011;7101;51.600;7.310;2023-05-10T14:24:17;7.45;;;4.85;;
14052;SDS011;7101;51.600;7.310;2023-05-10T14:26:43;7.78;;;4.38;;
14052;SDS011;7101;51.600;7.310;2023-05-10T14:29:10;5.68;;;4.93;;
14052;SDS011;7101;51.600;7.310;2023-05-10T14:31:37;6.22;;;4.57;;
14052;SDS011;7101;51.600;7.310;2023-05-10T14:34:04;7.20;;;4.95;;
14052;SDS011;7101;51.600;7.310;2023-05-10T14:36:31;7.80;;;4.97;;
14052;SDS011;7101;51.600;7.310;2023-05-10T14:39:00;8.27;;;5.40;;
14052;SDS011;7101;51.600;7.310;2023-05-10T14:41:26;7.47;;;4.65;;
14052;SDS011;7101;51.600;7.310;2023-05-10T14:43:55;6.00;;;4.53;;
14052;SDS011;7101;51.600;7.310;2023-05-10T14:46:22;7.60;;;5.22;;
14052;SDS011;7101;51.600;7.310;2023-05-10T14:48:48;8.48;;;4.70;;
14052;SDS011;7101;51.600;7.310;2023-05-10T14:51:15;8.15;;;4.90;;
14052;SDS011;7101;51.600;7.310;2023-05-10T14:53:43;8.77;;;4.45;;
14052;SDS011;7101;51.600;7.310;2023-05-10T14:56:12;6.78;;;4.70;;
14052;SDS011;7101;51.600;7.310;2023-05-10T14:58:38;8.40;;;4.22;;
14052;SDS011;7101;51.600;7.310;2023-05-10T15:01:06;7.28;;;4.70;;